Time;durP1;ratioP1;P1;durP2;ratioP2;P2;SDS_P1;SDS_P2;PMS_P1;PMS_P2;Temp;Humidity;BMP_temperature;BMP_pressure;BME280_temperature;BME280_humidity;BME280_pressure;Samples;Min_cycle;Max_cycle;Signal;HPM_P1;HPM_P2
2023/11/22 00:02:03;;;;;;;;;;;;;;;;;;5050725;28;19912;-46
2023/11/22 00:04:29;;;;;;;;;;;;;;;;;;5034456;28;20294;-46
2023/11/22 00:06:55;;;;;;;;;;;;;;;;;;5046021;28;20274;-46
2023/11/22 00:09:22;;;;;;;;;;;;;;;;;;5016650;28;19908;-46
2023/11/22 00:11:49;;;;;;;;;;;;;;;;;;5037899;28;20383;-47
2023/11/22 00:14:15;;;;;;;;;;;;;;;;;;5050776;28;19908;-47
2023/11/22 00:16:42;;;;;;;;;;;;;;;;;;5049200;28;19912;-47
2023/11/22 00:19:08;;;;;;;;;;;;;;;;;;5088660;22;20461;-51
2023/11/22 00:21:35;;;;;;;;;;;;;;;;;;5049727;28;19913;-49
2023/11/22 00:24:01;;;;;;;;;;;;;;;;;;5046486;28;19957;-54
2023/11/22 00:26:27;;;;;;;;;;;;;;;;;;5040674;28;19908;-54
2023/11/22 00:28:57;;;;;;;;;;;;;;;;;;5019094;28;19917;-50
2023/11/22 00:31:23;;;;;;;;;;;;;;;;;;5020005;28;19916;-55
2023/11/22 00:33:49;;;;;;;;;;;;;;;;;;5016694;28;19965;-54
2023/11/22 00:36:16;;;;;;;;;;;;;;;;;;5015279;28;19909;-51
2023/11/22 00:38:42;;;;;;;;;;;;;;;;;;5020243;28;20307;-51
2023/11/22 00:41:09;;;;;;;;;;;;;;;;;;5031853;28;19913;-56
2023/11/22 00:43:36;;;;;;;;;;;;;;;;;;5019366;28;19936;-53
2023/11/22 00:46:02;;;;;;;;;;;;;;;;;;4994746;28;20394;-50
2023/11/22 00:48:28;;;;;;;;;;;;;;;;;;5016357;28;19978;-53
2023/11/22 00:50:54;;;;;;;;;;;;;;;;;;5010797;28;19919;-54
2023/11/22 00:53:20;;;;;;;;;;;;;;;;;;5013382;28;19909;-52
2023/11/22 00:55:46;;;;;;;;;;;;;;;;;;5032113;28;19909;-49
2023/11/22 00:58:12;;;;;;;;;;;;;;;;;;5013847;28;20373;-54
2023/11/22 01:00:38;;;;;;;;;;;;;;;;;;4998949;28;19910;-51
2023/11/22 01:03:05;;;;;;;;;;;;;;;;;;5026074;28;19913;-54
2023/11/22 01:05:31;;;;;;;;;;;;;;;;;;5022771;28;20411;-54
2023/11/22 01:07:57;;;;;;;;;;;;;;;;;;5020741;28;20283;-50
2023/11/22 01:10:23;;;;;;;;;;;;;;;;;;5008343;28;19940;-49
2023/11/22 01:12:49;;;;;;;;;;;;;;;;;;5022701;28;19952;-54
2023/11/22 01:15:15;;;;;;;;;;;;;;;;;;5001099;28;20280;-54
2023/11/22 01:17:41;;;;;;;;;;;;;;;;;;4994396;28;20306;-53
2023/11/22 01:20:11;;;;;;;;;;;;;;;;;;5000759;28;19909;-49
2023/11/22 01:22:37;;;;;;;;;;;;;;;;;;5000763;28;19910;-54
2023/11/22 01:25:04;;;;;;;;;;;;;;;;;;5018515;28;19909;-54
2023/11/22 01:27:30;;;;;;;;;;;;;;;;;;5000964;28;19910;-54
2023/11/22 01:29:56;;;;;;;;;;;;;;;;;;4984866;28;20179;-50
2023/11/22 01:32:24;;;;;;;;;;;;;;;;;;5000110;28;19909;-49
2023/11/22 01:34:50;;;;;;;;;;;;;;;;;;5018595;28;20395;-49
2023/11/22 01:37:16;;;;;;;;;;;;;;;;;;5000980;28;20391;-50
2023/11/22 01:39:42;;;;;;;;;;;;;;;;;;5017751;28;20376;-52
2023/11/22 01:42:08;;;;;;;;;;;;;;;;;;5018201;28;19909;-50
2023/11/22 01:44:35;;;;;;;;;;;;;;;;;;5018257;28;19913;-53
2023/11/22 01:47:02;;;;;;;;;;;;;;;;;;5017993;28;19909;-51
2023/11/22 01:49:28;;;;;;;;;;;;;;;;;;5018145;28;19956;-55
2023/11/22 01:51:55;;;;;;;;;;;;;;;;;;4984057;28;19917;-54
2023/11/22 01:54:23;;;;;;;;;;;;;;;;;;4983933;28;19968;-49
2023/11/22 01:56:49;;;;;;;;;;;;;;;;;;5018300;28;19952;-52
2023/11/22 01:59:15;;;;;;;;;;;;;;;;;;5017927;28;19928;-53
2023/11/22 02:01:41;;;;;;;;;;;;;;;;;;5000221;28;19909;-54
2023/11/22 02:04:09;;;;;;;;;;;;;;;;;;5000302;28;19909;-56
2023/11/22 02:06:35;;;;;;;;;;;;;;;;;;5018015;28;19957;-51
2023/11/22 02:09:01;;;;;;;;;;;;;;;;;;5017700;28;19909;-54
2023/11/22 02:11:27;;;;;;;;;;;;;;;;;;5018138;28;19913;-52
2023/11/22 02:13:53;;;;;;;;;;;;;;;;;;5017956;28;19910;-51
2023/11/22 02:16:20;;;;;;;;;;;;;;;;;;4997545;28;20542;-52
2023/11/22 02:18:46;;;;;;;;;;;;;;;;;;4997015;28;20097;-53
2023/11/22 02:21:12;;;;;;;;;;;;;;;;;;4996917;28;19983;-54
2023/11/22 02:23:38;;;;;;;;;;;;;;;;;;4997004;28;19924;-48
2023/11/22 02:26:05;;;;;;;;;;;;;;;;;;4997572;28;20583;-50
2023/11/22 02:28:31;;;;;;;;;;;;;;;;;;4997292;28;19967;-52
2023/11/22 02:30:57;;;;;;;;;;;;;;;;;;4996768;28;19909;-52
2023/11/22 02:33:23;;;;;;;;;;;;;;;;;;5014393;28;20044;-53
2023/11/22 02:35:50;;;;;;;;;;;;;;;;;;5014466;28;19952;-52
2023/11/22 02:38:18;;;;;;;;;;;;;;;;;;4996930;28;19920;-51
2023/11/22 02:40:44;;;;;;;;;;;;;;;;;;4996368;28;19909;-48
2023/11/22 02:43:11;;;;;;;;;;;;;;;;;;5014541;28;19909;-49
2023/11/22 02:45:38;;;;;;;;;;;;;;;;;;4996841;28;19920;-49
2023/11/22 02:48:04;;;;;;;;;;;;;;;;;;4996742;28;19916;-49
2023/11/22 02:50:34;;;;;;;;;;;;;;;;;;5013993;28;19941;-55
2023/11/22 02:53:01;;;;;;;;;;;;;;;;;;4996876;28;19920;-50
2023/11/22 02:55:27;;;;;;;;;;;;;;;;;;5013357;28;19909;-51
2023/11/22 02:57:53;;;;;;;;;;;;;;;;;;4996494;28;19909;-52
2023/11/22 03:00:19;;;;;;;;;;;;;;;;;;4996587;28;20284;-50
2023/11/22 03:02:46;;;;;;;;;;;;;;;;;;5013668;28;19917;-50
2023/11/22 03:05:12;;;;;;;;;;;;;;;;;;5013938;28;20383;-51
2023/11/22 03:07:40;;;;;;;;;;;;;;;;;;4994946;28;19917;-54
2023/11/22 03:10:07;;;;;;;;;;;;;;;;;;5013000;28;20383;-52
2023/11/22 03:12:33;;;;;;;;;;;;;;;;;;4996311;28;19909;-51
2023/11/22 03:15:01;;;;;;;;;;;;;;;;;;4978930;28;20208;-49
2023/11/22 03:17:30;;;;;;;;;;;;;;;;;;5013841;28;19909;-49
2023/11/22 03:19:56;;;;;;;;;;;;;;;;;;5013552;28;19913;-49
2023/11/22 03:22:23;;;;;;;;;;;;;;;;;;4996018;28;19963;-49
2023/11/22 03:24:49;;;;;;;;;;;;;;;;;;5003333;28;19916;-49
2023/11/22 03:27:15;;;;;;;;;;;;;;;;;;4994287;28;19964;-49
2023/11/22 03:29:41;;;;;;;;;;;;;;;;;;4979622;28;20291;-52
2023/11/22 03:32:08;;;;;;;;;;;;;;;;;;5012963;28;19917;-49
2023/11/22 03:34:35;;;;;;;;;;;;;;;;;;4980215;28;20303;-51
2023/11/22 03:37:02;;;;;;;;;;;;;;;;;;5013396;28;19916;-53
2023/11/22 03:39:28;;;;;;;;;;;;;;;;;;5012710;28;19963;-52
2023/11/22 03:41:54;;;;;;;;;;;;;;;;;;5012975;28;19917;-54
2023/11/22 03:44:20;;;;;;;;;;;;;;;;;;4995807;28;19909;-55
2023/11/22 03:46:46;;;;;;;;;;;;;;;;;;5013046;28;19964;-55
2023/11/22 03:49:13;;;;;;;;;;;;;;;;;;5012846;28;20279;-53
2023/11/22 03:51:39;;;;;;;;;;;;;;;;;;4995210;28;19909;-49
2023/11/22 03:54:05;;;;;;;;;;;;;;;;;;5012950;28;19913;-51
2023/11/22 03:56:31;;;;;;;;;;;;;;;;;;5012897;28;20265;-49
2023/11/22 03:58:57;;;;;;;;;;;;;;;;;;5013144;28;20293;-52
2023/11/22 04:01:23;;;;;;;;;;;;;;;;;;5012661;28;20452;-54
2023/11/22 04:03:50;;;;;;;;;;;;;;;;;;5012891;28;20287;-49
2023/11/22 04:06:16;;;;;;;;;;;;;;;;;;5012674;28;19920;-50
2023/11/22 04:08:43;;;;;;;;;;;;;;;;;;4995095;28;19916;-49
2023/11/22 04:11:09;;;;;;;;;;;;;;;;;;4995397;28;19913;-49
2023/11/22 04:13:36;;;;;;;;;;;;;;;;;;5012841;28;19910;-49
2023/11/22 04:16:02;;;;;;;;;;;;;;;;;;5012042;28;19915;-51
2023/11/22 04:18:28;;;;;;;;;;;;;;;;;;5021122;28;19964;-49
2023/11/22 04:20:55;;;;;;;;;;;;;;;;;;5022647;28;19915;-51
2023/11/22 04:23:21;;;;;;;;;;;;;;;;;;5012930;28;19910;-51
2023/11/22 04:25:49;;;;;;;;;;;;;;;;;;4995109;28;19956;-52
2023/11/22 04:28:16;;;;;;;;;;;;;;;;;;5016487;28;19963;-56
2023/11/22 04:30:42;;;;;;;;;;;;;;;;;;5017634;28;19962;-51
2023/11/22 04:33:08;;;;;;;;;;;;;;;;;;5026770;28;19909;-50
2023/11/22 04:35:36;;;;;;;;;;;;;;;;;;5009579;28;19913;-49
2023/11/22 04:38:03;;;;;;;;;;;;;;;;;;5030773;28;19909;-50
2023/11/22 04:40:29;;;;;;;;;;;;;;;;;;5027976;28;19909;-54
2023/11/22 04:42:55;;;;;;;;;;;;;;;;;;5024453;28;19913;-55
2023/11/22 04:45:21;;;;;;;;;;;;;;;;;;5031300;28;19913;-55
2023/11/22 04:47:47;;;;;;;;;;;;;;;;;;5012294;28;19953;-53
2023/11/22 04:50:14;;;;;;;;;;;;;;;;;;5010763;28;19945;-52
2023/11/22 04:52:40;;;;;;;;;;;;;;;;;;5003360;28;19916;-54
2023/11/22 04:55:06;;;;;;;;;;;;;;;;;;5030844;28;19916;-52
2023/11/22 04:57:32;;;;;;;;;;;;;;;;;;5030853;28;19909;-52
2023/11/22 05:00:00;;;;;;;;;;;;;;;;;;5031764;28;19975;-55
2023/11/22 05:02:26;;;;;;;;;;;;;;;;;;5032036;28;19944;-52
2023/11/22 05:04:52;;;;;;;;;;;;;;;;;;5032108;28;20354;-49
2023/11/22 05:07:22;;;;;;;;;;;;;;;;;;5032057;28;19981;-49
2023/11/22 05:09:48;;;;;;;;;;;;;;;;;;5031994;28;19909;-54
2023/11/22 05:12:17;;;;;;;;;;;;;;;;;;5014366;28;19909;-53
2023/11/22 05:14:45;;;;;;;;;;;;;;;;;;5014607;28;19948;-49
2023/11/22 05:17:12;;;;;;;;;;;;;;;;;;5031981;28;19909;-48
2023/11/22 05:19:38;;;;;;;;;;;;;;;;;;5031791;28;19963;-49
2023/11/22 05:22:04;;;;;;;;;;;;;;;;;;5031952;28;20507;-49
2023/11/22 05:24:30;;;;;;;;;;;;;;;;;;5014538;28;20530;-49
2023/11/22 05:26:56;;;;;;;;;;;;;;;;;;5031844;28;20595;-50
2023/11/22 05:29:22;;;;;;;;;;;;;;;;;;5031795;28;19992;-50
2023/11/22 05:31:48;;;;;;;;;;;;;;;;;;5031687;28;19960;-52
2023/11/22 05:34:14;;;;;;;;;;;;;;;;;;5031801;28;20311;-51
2023/11/22 05:36:40;;;;;;;;;;;;;;;;;;5031844;28;20295;-50
2023/11/22 05:39:06;;;;;;;;;;;;;;;;;;5031655;28;19952;-51
2023/11/22 05:41:32;;;;;;;;;;;;;;;;;;5031521;28;19916;-50
2023/11/22 05:43:58;;;;;;;;;;;;;;;;;;5014121;28;20437;-55
2023/11/22 05:46:27;;;;;;;;;;;;;;;;;;5031793;28;20446;-50
2023/11/22 05:48:53;;;;;;;;;;;;;;;;;;5031649;28;19909;-49
2023/11/22 05:51:19;;;;;;;;;;;;;;;;;;5033640;28;19994;-48
2023/11/22 05:53:45;;;;;;;;;;;;;;;;;;5035432;28;19919;-50
2023/11/22 05:56:11;;;;;;;;;;;;;;;;;;5035412;28;19909;-50
2023/11/22 05:58:39;;;;;;;;;;;;;;;;;;5035245;28;19920;-50
2023/11/22 06:01:05;;;;;;;;;;;;;;;;;;5035184;28;19909;-51
2023/11/22 06:03:31;;;;;;;;;;;;;;;;;;5035284;28;19909;-49
2023/11/22 06:05:57;;;;;;;;;;;;;;;;;;5035199;28;19964;-51
2023/11/22 06:08:23;;;;;;;;;;;;;;;;;;5017379;28;19909;-49
2023/11/22 06:10:49;;;;;;;;;;;;;;;;;;5000922;28;19916;-49
2023/11/22 06:13:15;;;;;;;;;;;;;;;;;;5035064;28;19913;-48
2023/11/22 06:15:42;;;;;;;;;;;;;;;;;;5035183;28;20282;-48
2023/11/22 06:18:08;;;;;;;;;;;;;;;;;;5020400;22;19897;-45
2023/11/22 06:20:34;;;;;;;;;;;;;;;;;;5054132;28;19917;-46
2023/11/22 06:23:00;;;;;;;;;;;;;;;;;;5036663;28;19936;-46
2023/11/22 06:25:27;;;;;;;;;;;;;;;;;;5037006;28;19908;-45
2023/11/22 06:27:53;;;;;;;;;;;;;;;;;;5037993;28;19963;-45
2023/11/22 06:30:19;;;;;;;;;;;;;;;;;;5074687;28;19999;-45
2023/11/22 06:32:45;;;;;;;;;;;;;;;;;;5056584;28;20452;-47
2023/11/22 06:35:14;;;;;;;;;;;;;;;;;;5056724;28;20393;-45
2023/11/22 06:37:40;;;;;;;;;;;;;;;;;;5074587;28;19908;-45
2023/11/22 06:40:08;;;;;;;;;;;;;;;;;;5074536;28;19916;-45
2023/11/22 06:42:34;;;;;;;;;;;;;;;;;;5074048;28;19915;-46
2023/11/22 06:45:00;;;;;;;;;;;;;;;;;;5074394;28;19915;-47
2023/11/22 06:47:29;;;;;;;;;;;;;;;;;;5074325;28;20445;-45
2023/11/22 06:49:55;;;;;;;;;;;;;;;;;;5074199;28;19915;-46
2023/11/22 06:52:21;;;;;;;;;;;;;;;;;;5054626;28;19995;-46
2023/11/22 06:54:47;;;;;;;;;;;;;;;;;;5073837;28;19908;-47
2023/11/22 06:57:13;;;;;;;;;;;;;;;;;;5073764;28;19954;-48
2023/11/22 06:59:40;;;;;;;;;;;;;;;;;;5074019;28;19912;-49
2023/11/22 07:02:07;;;;;;;;;;;;;;;;;;5054839;28;19940;-46
2023/11/22 07:04:34;;;;;;;;;;;;;;;;;;5056072;28;19954;-46
2023/11/22 07:07:02;;;;;;;;;;;;;;;;;;5073755;28;20382;-48
2023/11/22 07:09:28;;;;;;;;;;;;;;;;;;5056016;28;19909;-45
2023/11/22 07:11:54;;;;;;;;;;;;;;;;;;5055467;28;19954;-45
2023/11/22 07:14:21;;;;;;;;;;;;;;;;;;5055839;28;20412;-45
2023/11/22 07:16:47;;;;;;;;;;;;;;;;;;5055285;28;19916;-43
2023/11/22 07:19:13;;;;;;;;;;;;;;;;;;5073351;28;19920;-43
2023/11/22 07:21:39;;;;;;;;;;;;;;;;;;5068838;28;19912;-50
2023/11/22 07:24:09;;;;;;;;;;;;;;;;;;5053685;28;19945;-45
2023/11/22 07:26:35;;;;;;;;;;;;;;;;;;5056925;28;19919;-46
2023/11/22 07:29:01;;;;;;;;;;;;;;;;;;5064648;28;19908;-46
2023/11/22 07:31:27;;;;;;;;;;;;;;;;;;5068521;28;19908;-45
2023/11/22 07:33:53;;;;;;;;;;;;;;;;;;5061500;28;19908;-45
2023/11/22 07:36:20;;;;;;;;;;;;;;;;;;5067895;28;19974;-45
2023/11/22 07:38:48;;;;;;;;;;;;;;;;;;5061654;28;19967;-47
2023/11/22 07:41:14;;;;;;;;;;;;;;;;;;5068942;28;20325;-45
2023/11/22 07:43:40;;;;;;;;;;;;;;;;;;5062132;28;20004;-45
2023/11/22 07:46:12;;;;;;;;;;;;;;;;;;5053315;28;19908;-44
2023/11/22 07:48:38;;;;;;;;;;;;;;;;;;5032163;28;20276;-45
2023/11/22 07:51:05;;;;;;;;;;;;;;;;;;5036486;28;20430;-44
2023/11/22 07:53:34;;;;;;;;;;;;;;;;;;5064725;28;20321;-45
2023/11/22 07:56:04;;;;;;;;;;;;;;;;;;5070079;28;19908;-46
2023/11/22 07:58:30;;;;;;;;;;;;;;;;;;5063401;28;19913;-44
2023/11/22 08:00:56;;;;;;;;;;;;;;;;;;5071460;28;20441;-45
2023/11/22 08:03:25;;;;;;;;;;;;;;;;;;5052954;28;19931;-45
2023/11/22 08:05:53;;;;;;;;;;;;;;;;;;5053068;28;19908;-44
2023/11/22 08:08:19;;;;;;;;;;;;;;;;;;5058790;28;20371;-47
2023/11/22 08:10:47;;;;;;;;;;;;;;;;;;5070742;28;19909;-46
2023/11/22 08:13:13;;;;;;;;;;;;;;;;;;5063647;28;19908;-45
2023/11/22 08:15:39;;;;;;;;;;;;;;;;;;5071398;28;19920;-53
2023/11/22 08:18:05;;;;;;;;;;;;;;;;;;5059288;28;19908;-47
2023/11/22 08:20:31;;;;;;;;;;;;;;;;;;5054713;28;20362;-46
2023/11/22 08:22:57;;;;;;;;;;;;;;;;;;5072021;28;19908;-47
2023/11/22 08:25:23;;;;;;;;;;;;;;;;;;5072562;28;19908;-47
2023/11/22 08:27:49;;;;;;;;;;;;;;;;;;5071932;28;20270;-47
2023/11/22 08:30:17;;;;;;;;;;;;;;;;;;5072597;28;19949;-47
2023/11/22 08:32:43;;;;;;;;;;;;;;;;;;5071951;28;20259;-46
2023/11/22 08:35:10;;;;;;;;;;;;;;;;;;5054439;28;20002;-48
2023/11/22 08:37:37;;;;;;;;;;;;;;;;;;5053990;28;20382;-48
2023/11/22 08:40:03;;;;;;;;;;;;;;;;;;5071759;28;20340;-45
2023/11/22 08:42:29;;;;;;;;;;;;;;;;;;5071782;28;19912;-45
2023/11/22 08:44:55;;;;;;;;;;;;;;;;;;5053979;28;19912;-46
2023/11/22 08:47:22;;;;;;;;;;;;;;;;;;5053775;28;19915;-45
2023/11/22 08:49:48;;;;;;;;;;;;;;;;;;5054243;28;19905;-45
2023/11/22 08:52:14;;;;;;;;;;;;;;;;;;5072223;28;20281;-51
2023/11/22 08:54:41;;;;;;;;;;;;;;;;;;5054257;28;19904;-46
2023/11/22 08:57:07;;;;;;;;;;;;;;;;;;5072052;28;20412;-45
2023/11/22 08:59:37;;;;;;;;;;;;;;;;;;5071966;28;20424;-45
2023/11/22 09:02:04;;;;;;;;;;;;;;;;;;5072214;28;19916;-45
2023/11/22 09:04:31;;;;;;;;;;;;;;;;;;5072164;28;19951;-45
2023/11/22 09:06:57;;;;;;;;;;;;;;;;;;5072112;28;19948;-45
2023/11/22 09:09:30;;;;;;;;;;;;;;;;;;5071955;28;20057;-45
2023/11/22 09:11:57;;;;;;;;;;;;;;;;;;5071850;28;19908;-49
2023/11/22 09:14:23;;;;;;;;;;;;;;;;;;5072068;28;19958;-46
2023/11/22 09:16:54;;;;;;;;;;;;;;;;;;5072084;28;19956;-45
2023/11/22 09:19:20;;;;;;;;;;;;;;;;;;5071615;28;20378;-45
2023/11/22 09:21:46;;;;;;;;;;;;;;;;;;5071754;28;20003;-45
2023/11/22 09:24:12;;;;;;;;;;;;;;;;;;5053282;28;19934;-45
2023/11/22 09:26:38;;;;;;;;;;;;;;;;;;5056703;28;20329;-45
2023/11/22 09:29:04;;;;;;;;;;;;;;;;;;5075392;28;20232;-45
2023/11/22 09:31:30;;;;;;;;;;;;;;;;;;5075546;28;19908;-47
2023/11/22 09:33:57;;;;;;;;;;;;;;;;;;5075747;28;20015;-45
2023/11/22 09:36:24;;;;;;;;;;;;;;;;;;5075641;28;19915;-47
2023/11/22 09:38:51;;;;;;;;;;;;;;;;;;5075400;28;19930;-45
2023/11/22 09:41:18;;;;;;;;;;;;;;;;;;5057610;28;19914;-45
2023/11/22 09:43:46;;;;;;;;;;;;;;;;;;5076030;28;19909;-45
2023/11/22 09:46:12;;;;;;;;;;;;;;;;;;5076012;28;19999;-45
2023/11/22 09:48:38;;;;;;;;;;;;;;;;;;5057470;28;20466;-45
2023/11/22 09:51:05;;;;;;;;;;;;;;;;;;5075213;28;19931;-45
2023/11/22 09:53:31;;;;;;;;;;;;;;;;;;5075271;28;20403;-46
2023/11/22 09:55:57;;;;;;;;;;;;;;;;;;5075237;28;19954;-45
2023/11/22 09:58:24;;;;;;;;;;;;;;;;;;5075099;28;19935;-45
2023/11/22 10:00:50;;;;;;;;;;;;;;;;;;5075398;28;20756;-45
2023/11/22 10:03:18;;;;;;;;;;;;;;;;;;5075504;28;19995;-45
2023/11/22 10:05:44;;;;;;;;;;;;;;;;;;5075036;28;19909;-45
2023/11/22 10:08:10;;;;;;;;;;;;;;;;;;5075247;28;20259;-48
2023/11/22 10:10:36;;;;;;;;;;;;;;;;;;5075220;28;19908;-48
2023/11/22 10:13:03;;;;;;;;;;;;;;;;;;5075343;28;19908;-46
2023/11/22 10:15:29;;;;;;;;;;;;;;;;;;5075252;28;19962;-48
2023/11/22 10:18:00;;;;;;;;;;;;;;;;;;5074985;28;19913;-47
2023/11/22 10:20:26;;;;;;;;;;;;;;;;;;5055063;28;19971;-51
2023/11/22 10:22:53;;;;;;;;;;;;;;;;;;5054624;28;19927;-48
2023/11/22 10:25:19;;;;;;;;;;;;;;;;;;5054931;28;19920;-50
2023/11/22 10:27:46;;;;;;;;;;;;;;;;;;5054959;28;20339;-50
2023/11/22 10:30:13;;;;;;;;;;;;;;;;;;5054938;28;19904;-45
2023/11/22 10:32:39;;;;;;;;;;;;;;;;;;5036696;28;20336;-48
2023/11/22 10:35:05;;;;;;;;;;;;;;;;;;5054627;28;19908;-45
2023/11/22 10:37:31;;;;;;;;;;;;;;;;;;5053487;28;20298;-45
2023/11/22 10:39:57;;;;;;;;;;;;;;;;;;5054540;28;20010;-45
2023/11/22 10:42:24;;;;;;;;;;;;;;;;;;5036541;28;19944;-45
2023/11/22 10:44:50;;;;;;;;;;;;;;;;;;5036716;28;19909;-46
2023/11/22 10:47:19;;;;;;;;;;;;;;;;;;5036518;28;20386;-48
2023/11/22 10:49:45;;;;;;;;;;;;;;;;;;5054617;28;19908;-47
2023/11/22 10:52:11;;;;;;;;;;;;;;;;;;5054079;28;20430;-45
2023/11/22 10:54:37;;;;;;;;;;;;;;;;;;5054254;28;19915;-45
2023/11/22 10:57:03;;;;;;;;;;;;;;;;;;5054362;28;19905;-45
2023/11/22 10:59:30;;;;;;;;;;;;;;;;;;5054004;28;19920;-45
2023/11/22 11:01:58;;;;;;;;;;;;;;;;;;5036051;28;20054;-46
2023/11/22 11:04:24;;;;;;;;;;;;;;;;;;5054028;28;19916;-46
2023/11/22 11:06:50;;;;;;;;;;;;;;;;;;5054042;28;19948;-45
2023/11/22 11:09:21;;;;;;;;;;;;;;;;;;5053938;28;19908;-47
2023/11/22 11:11:47;;;;;;;;;;;;;;;;;;5053772;28;19908;-45
2023/11/22 11:14:13;;;;;;;;;;;;;;;;;;5053842;28;19916;-45
2023/11/22 11:16:41;;;;;;;;;;;;;;;;;;5053643;28;19905;-45
2023/11/22 11:19:07;;;;;;;;;;;;;;;;;;5063201;28;20278;-46
2023/11/22 11:21:33;;;;;;;;;;;;;;;;;;5073314;28;19908;-46
2023/11/22 11:24:02;;;;;;;;;;;;;;;;;;5060971;28;19913;-45
2023/11/22 11:26:28;;;;;;;;;;;;;;;;;;5073710;28;20273;-45
2023/11/22 11:28:54;;;;;;;;;;;;;;;;;;5053916;28;19978;-46
2023/11/22 11:31:20;;;;;;;;;;;;;;;;;;5065739;28;19938;-44
2023/11/22 11:33:46;;;;;;;;;;;;;;;;;;5072204;28;19959;-45
2023/11/22 11:36:12;;;;;;;;;;;;;;;;;;5073500;28;19908;-45
2023/11/22 11:38:38;;;;;;;;;;;;;;;;;;5073395;28;19915;-45
2023/11/22 11:41:05;;;;;;;;;;;;;;;;;;5071872;28;20444;-45
2023/11/22 11:43:31;;;;;;;;;;;;;;;;;;5072107;28;20405;-45
2023/11/22 11:45:57;;;;;;;;;;;;;;;;;;5071740;28;20386;-48
2023/11/22 11:48:24;;;;;;;;;;;;;;;;;;5064930;28;20286;-46
2023/11/22 11:50:51;;;;;;;;;;;;;;;;;;5057946;28;19995;-46
2023/11/22 11:53:17;;;;;;;;;;;;;;;;;;5068734;28;19946;-45
2023/11/22 11:55:45;;;;;;;;;;;;;;;;;;5052485;28;19912;-47
2023/11/22 11:58:11;;;;;;;;;;;;;;;;;;5056496;28;19999;-45
2023/11/22 12:00:40;;;;;;;;;;;;;;;;;;5055680;28;20511;-50
2023/11/22 12:03:09;;;;;;;;;;;;;;;;;;5064572;28;20354;-47
2023/11/22 12:05:35;;;;;;;;;;;;;;;;;;5051736;28;19919;-46
2023/11/22 12:08:02;;;;;;;;;;;;;;;;;;5084988;28;19908;-46
2023/11/22 12:10:28;;;;;;;;;;;;;;;;;;5060860;28;19912;-49
2023/11/22 12:12:54;;;;;;;;;;;;;;;;;;5033511;28;20007;-49
2023/11/22 12:15:20;;;;;;;;;;;;;;;;;;5081328;28;19912;-49
2023/11/22 12:17:47;;;;;;;;;;;;;;;;;;5067483;28;19918;-50
2023/11/22 12:20:13;;;;;;;;;;;;;;;;;;5071074;22;20418;-55
2023/11/22 12:22:41;;;;;;;;;;;;;;;;;;5025662;28;19959;-57
2023/11/22 12:25:08;;;;;;;;;;;;;;;;;;5004983;28;19915;-58
2023/11/22 12:27:34;;;;;;;;;;;;;;;;;;5017712;28;20307;-59
2023/11/22 12:30:00;;;;;;;;;;;;;;;;;;5011051;28;19992;-57
2023/11/22 12:32:26;;;;;;;;;;;;;;;;;;4993233;28;19985;-58
2023/11/22 12:34:53;;;;;;;;;;;;;;;;;;5002401;28;19916;-58
2023/11/22 12:37:21;;;;;;;;;;;;;;;;;;5005526;28;20367;-57
2023/11/22 12:39:48;;;;;;;;;;;;;;;;;;5007854;28;19922;-58
2023/11/22 12:42:14;;;;;;;;;;;;;;;;;;4992801;28;19917;-58
2023/11/22 12:44:40;;;;;;;;;;;;;;;;;;5009030;28;19913;-58
2023/11/22 12:47:10;;;;;;;;;;;;;;;;;;5011493;28;19949;-56
2023/11/22 12:49:37;;;;;;;;;;;;;;;;;;5012056;28;20343;-55
2023/11/22 12:52:03;;;;;;;;;;;;;;;;;;5012239;28;20378;-58
2023/11/22 12:54:29;;;;;;;;;;;;;;;;;;5012128;28;19909;-61
2023/11/22 12:56:57;;;;;;;;;;;;;;;;;;5012266;28;19959;-57
2023/11/22 12:59:23;;;;;;;;;;;;;;;;;;5009975;28;20352;-61
2023/11/22 13:01:49;;;;;;;;;;;;;;;;;;5008924;28;19909;-55
2023/11/22 13:04:16;;;;;;;;;;;;;;;;;;4988796;28;19949;-56
2023/11/22 13:06:43;;;;;;;;;;;;;;;;;;4994366;28;19913;-58
2023/11/22 13:09:14;;;;;;;;;;;;;;;;;;5004854;28;19960;-58
2023/11/22 13:11:41;;;;;;;;;;;;;;;;;;4991144;28;19910;-57
2023/11/22 13:14:07;;;;;;;;;;;;;;;;;;4992976;28;20011;-58
2023/11/22 13:16:34;;;;;;;;;;;;;;;;;;5010369;28;19955;-57
2023/11/22 13:19:00;;;;;;;;;;;;;;;;;;5007574;28;19913;-59
2023/11/22 13:21:26;;;;;;;;;;;;;;;;;;5011144;28;19988;-57
2023/11/22 13:23:52;;;;;;;;;;;;;;;;;;5010774;28;19920;-58
2023/11/22 13:26:18;;;;;;;;;;;;;;;;;;5011921;28;19906;-55
2023/11/22 13:28:44;;;;;;;;;;;;;;;;;;5011088;28;19914;-58
2023/11/22 13:31:12;;;;;;;;;;;;;;;;;;4994435;28;19917;-57
2023/11/22 13:33:38;;;;;;;;;;;;;;;;;;5012181;28;19917;-58
2023/11/22 13:36:04;;;;;;;;;;;;;;;;;;5012084;28;19914;-58
2023/11/22 13:38:30;;;;;;;;;;;;;;;;;;5011902;28;19968;-57
2023/11/22 13:40:57;;;;;;;;;;;;;;;;;;5011880;28;19909;-57
2023/11/22 13:43:23;;;;;;;;;;;;;;;;;;5012008;28;19914;-57
2023/11/22 13:45:50;;;;;;;;;;;;;;;;;;5012132;28;20434;-58
2023/11/22 13:48:16;;;;;;;;;;;;;;;;;;5012021;28;19906;-57
2023/11/22 13:50:42;;;;;;;;;;;;;;;;;;5011205;28;19956;-58
2023/11/22 13:53:10;;;;;;;;;;;;;;;;;;4993762;28;20399;-58
2023/11/22 13:55:37;;;;;;;;;;;;;;;;;;4993735;28;20016;-57
2023/11/22 13:58:05;;;;;;;;;;;;;;;;;;4993725;28;19955;-56
2023/11/22 14:00:34;;;;;;;;;;;;;;;;;;4993648;28;19913;-58
2023/11/22 14:03:06;;;;;;;;;;;;;;;;;;5011545;28;20012;-57
2023/11/22 14:05:33;;;;;;;;;;;;;;;;;;5011283;28;19963;-56
2023/11/22 14:08:00;;;;;;;;;;;;;;;;;;4993885;28;19909;-56
2023/11/22 14:10:26;;;;;;;;;;;;;;;;;;4995950;28;20003;-58
2023/11/22 14:12:52;;;;;;;;;;;;;;;;;;4996702;28;19909;-58
2023/11/22 14:15:19;;;;;;;;;;;;;;;;;;4997617;28;20276;-53
2023/11/22 14:17:49;;;;;;;;;;;;;;;;;;4984947;28;20001;-58
2023/11/22 14:20:15;;;;;;;;;;;;;;;;;;4991545;28;19924;-53
2023/11/22 14:22:42;;;;;;;;;;;;;;;;;;4992832;28;20040;-55
2023/11/22 14:25:11;;;;;;;;;;;;;;;;;;4976182;28;19957;-59
2023/11/22 14:27:37;;;;;;;;;;;;;;;;;;4976145;28;19946;-59
2023/11/22 14:30:07;;;;;;;;;;;;;;;;;;4990057;28;19957;-59
2023/11/22 14:32:34;;;;;;;;;;;;;;;;;;4995148;28;20265;-60
2023/11/22 14:35:01;;;;;;;;;;;;;;;;;;4999392;28;19997;-60
2023/11/22 14:37:28;;;;;;;;;;;;;;;;;;5015026;28;20391;-51
2023/11/22 14:39:54;;;;;;;;;;;;;;;;;;5014867;28;19913;-53
2023/11/22 14:42:21;;;;;;;;;;;;;;;;;;5014557;28;19963;-52
2023/11/22 14:44:48;;;;;;;;;;;;;;;;;;5014550;28;20375;-56
2023/11/22 14:47:19;;;;;;;;;;;;;;;;;;4994234;28;20467;-50
2023/11/22 14:49:45;;;;;;;;;;;;;;;;;;4978920;28;20400;-54
2023/11/22 14:52:11;;;;;;;;;;;;;;;;;;5007306;28;19910;-52
2023/11/22 14:54:37;;;;;;;;;;;;;;;;;;5012320;28;19931;-56
2023/11/22 14:57:03;;;;;;;;;;;;;;;;;;4996088;28;20447;-57
2023/11/22 14:59:29;;;;;;;;;;;;;;;;;;5013317;28;19913;-50
2023/11/22 15:01:56;;;;;;;;;;;;;;;;;;4996451;28;19905;-51
2023/11/22 15:04:22;;;;;;;;;;;;;;;;;;5014429;28;19916;-49
2023/11/22 15:06:49;;;;;;;;;;;;;;;;;;5014406;28;19951;-49
2023/11/22 15:09:15;;;;;;;;;;;;;;;;;;4996730;28;19964;-54
2023/11/22 15:11:41;;;;;;;;;;;;;;;;;;5014028;28;19916;-53
2023/11/22 15:14:07;;;;;;;;;;;;;;;;;;4996606;28;19956;-53
2023/11/22 15:16:35;;;;;;;;;;;;;;;;;;4987056;28;19910;-48
2023/11/22 15:19:02;;;;;;;;;;;;;;;;;;4965242;28;19936;-55
2023/11/22 15:21:28;;;;;;;;;;;;;;;;;;5008761;28;19909;-52
2023/11/22 15:23:55;;;;;;;;;;;;;;;;;;5012170;28;19913;-54
2023/11/22 15:26:21;;;;;;;;;;;;;;;;;;5012643;28;19916;-52
2023/11/22 15:28:47;;;;;;;;;;;;;;;;;;5012492;28;19928;-51
2023/11/22 15:31:14;;;;;;;;;;;;;;;;;;5012589;28;19916;-50
2023/11/22 15:33:40;;;;;;;;;;;;;;;;;;5012651;28;20007;-51
2023/11/22 15:36:06;;;;;;;;;;;;;;;;;;5012441;28;19916;-54
2023/11/22 15:38:32;;;;;;;;;;;;;;;;;;5012060;28;20398;-58
2023/11/22 15:40:59;;;;;;;;;;;;;;;;;;5013320;28;19909;-55
2023/11/22 15:43:27;;;;;;;;;;;;;;;;;;5013666;28;19997;-50
2023/11/22 15:45:54;;;;;;;;;;;;;;;;;;5012409;28;20004;-48
2023/11/22 15:48:20;;;;;;;;;;;;;;;;;;5013529;28;19936;-51
2023/11/22 15:50:46;;;;;;;;;;;;;;;;;;5013383;28;19955;-52
2023/11/22 15:53:15;;;;;;;;;;;;;;;;;;5013555;28;19916;-53
2023/11/22 15:55:41;;;;;;;;;;;;;;;;;;5013392;28;19971;-54
2023/11/22 15:58:08;;;;;;;;;;;;;;;;;;5013439;28;19916;-53
2023/11/22 16:00:35;;;;;;;;;;;;;;;;;;5013190;28;19924;-55
2023/11/22 16:03:06;;;;;;;;;;;;;;;;;;5013392;28;19909;-56
2023/11/22 16:05:32;;;;;;;;;;;;;;;;;;5013443;28;19909;-55
2023/11/22 16:07:58;;;;;;;;;;;;;;;;;;5013225;28;19928;-54
2023/11/22 16:10:24;;;;;;;;;;;;;;;;;;5011899;28;20000;-54
2023/11/22 16:12:51;;;;;;;;;;;;;;;;;;5011758;28;20372;-53
2023/11/22 16:15:17;;;;;;;;;;;;;;;;;;5013207;28;20445;-53
2023/11/22 16:17:43;;;;;;;;;;;;;;;;;;5010854;28;19906;-49
2023/11/22 16:20:14;;;;;;;;;;;;;;;;;;4988356;28;19921;-56
2023/11/22 16:22:44;;;;;;;;;;;;;;;;;;4978235;28;20451;-51
2023/11/22 16:25:10;;;;;;;;;;;;;;;;;;4979738;28;20001;-53
2023/11/22 16:27:36;;;;;;;;;;;;;;;;;;4978092;28;19917;-59
2023/11/22 16:30:03;;;;;;;;;;;;;;;;;;4980615;28;19964;-52
2023/11/22 16:32:32;;;;;;;;;;;;;;;;;;4977150;28;20328;-53
2023/11/22 16:34:59;;;;;;;;;;;;;;;;;;4963113;28;19910;-56
2023/11/22 16:37:25;;;;;;;;;;;;;;;;;;4958815;28;20433;-50
2023/11/22 16:39:51;;;;;;;;;;;;;;;;;;4984446;28;19996;-57
2023/11/22 16:42:18;;;;;;;;;;;;;;;;;;4988057;28;19910;-55